createdAt,value
2023-01-22T00:01:24.835Z,9.62
2023-01-22T00:03:54.967Z,9.72
2023-01-22T00:06:24.732Z,9.65
2023-01-22T00:08:53.609Z,9.72
2023-01-22T00:11:22.169Z,9.71
2023-01-22T00:13:51.651Z,9.78
2023-01-22T00:16:24.203Z,9.81
2023-01-22T00:18:52.498Z,9.94
2023-01-22T00:21:20.737Z,9.71
2023-01-22T00:23:49.147Z,9.48
2023-01-22T00:26:21.302Z,9.50
2023-01-22T00:28:49.729Z,9.73
2023-01-22T00:31:18.580Z,9.52
2023-01-22T00:33:48.970Z,9.28
2023-01-22T00:36:19.426Z,8.83
2023-01-22T00:38:47.750Z,9.12
2023-01-22T00:41:16.280Z,9.42
2023-01-22T00:43:44.721Z,9.62
2023-01-22T00:46:16.465Z,9.78
2023-01-22T00:48:46.116Z,9.94
2023-01-22T00:51:15.832Z,9.92
2023-01-22T00:53:44.899Z,9.74
2023-01-22T00:56:14.855Z,9.77
2023-01-22T00:58:43.194Z,9.69
2023-01-22T01:01:11.467Z,9.42
2023-01-22T01:03:39.836Z,9.41
2023-01-22T01:06:12.179Z,9.24
2023-01-22T01:08:43.895Z,9.26
2023-01-22T01:11:15.746Z,9.33
2023-01-22T01:13:44.860Z,9.41
2023-01-22T01:16:14.847Z,9.52
2023-01-22T01:18:43.548Z,9.52
2023-01-22T01:21:12.562Z,9.28
2023-01-22T01:23:44.829Z,9.35
2023-01-22T01:26:15.072Z,9.48
2023-01-22T01:28:44.087Z,9.50
2023-01-22T01:31:14.595Z,9.41
2023-01-22T01:33:43.417Z,8.69
2023-01-22T01:36:18.299Z,9.17
2023-01-22T01:38:49.682Z,9.07
2023-01-22T01:41:20.628Z,9.21
2023-01-22T01:44:04.187Z,8.91
2023-01-22T01:46:33.695Z,9.00
2023-01-22T01:49:01.889Z,9.02
2023-01-22T01:51:34.036Z,8.78
2023-01-22T01:54:05.650Z,8.92
2023-01-22T01:56:38.140Z,8.82
2023-01-22T01:59:10.305Z,8.77
2023-01-22T02:01:39.041Z,9.10
2023-01-22T02:04:07.967Z,8.70
2023-01-22T02:06:36.267Z,8.76
2023-01-22T02:09:05.960Z,8.92
2023-01-22T02:11:35.082Z,8.79
2023-01-22T02:14:05.998Z,9.07
2023-01-22T02:16:34.459Z,9.12
2023-01-22T02:19:02.798Z,9.18
2023-01-22T02:21:37.953Z,9.22
2023-01-22T02:24:07.994Z,8.81
2023-01-22T02:26:36.717Z,8.91
2023-01-22T02:29:05.466Z,9.08
2023-01-22T02:31:33.862Z,8.99
2023-01-22T02:34:03.226Z,9.17
2023-01-22T02:36:34.140Z,9.20
2023-01-22T02:39:02.409Z,9.26
2023-01-22T02:41:30.797Z,9.22
2023-01-22T02:43:59.093Z,9.09
2023-01-22T02:46:27.531Z,9.21
2023-01-22T02:48:58.379Z,9.32
2023-01-22T02:51:26.957Z,9.32
2023-01-22T02:53:56.701Z,9.42
2023-01-22T02:56:25.278Z,9.28
2023-01-22T02:58:56.176Z,9.53
2023-01-22T03:01:25.991Z,9.23
2023-01-22T03:03:55.900Z,9.39
2023-01-22T03:06:26.755Z,9.51
2023-01-22T03:08:58.559Z,9.50
2023-01-22T03:11:29.064Z,9.62
2023-01-22T03:14:15.504Z,9.57
2023-01-22T03:17:02.607Z,9.18
2023-01-22T03:19:48.535Z,9.63
2023-01-22T03:22:17.785Z,9.29
2023-01-22T03:24:51.402Z,9.07
2023-01-22T03:27:20.742Z,9.38
2023-01-22T03:29:49.226Z,8.99
2023-01-22T03:32:17.601Z,9.58
2023-01-22T03:34:46.048Z,9.74
2023-01-22T03:37:14.878Z,9.83
2023-01-22T03:39:43.318Z,9.77
2023-01-22T03:42:13.002Z,9.63
2023-01-22T03:44:41.237Z,9.50
2023-01-22T03:47:09.537Z,9.49
2023-01-22T03:49:37.814Z,9.50
2023-01-22T03:52:06.091Z,9.40
2023-01-22T03:54:34.455Z,9.61
2023-01-22T03:57:02.735Z,9.52
2023-01-22T03:59:32.528Z,9.66
2023-01-22T04:02:00.874Z,9.52
2023-01-22T04:04:29.247Z,9.57
2023-01-22T04:06:58.554Z,9.68
2023-01-22T04:09:26.919Z,9.58
2023-01-22T04:11:55.162Z,9.09
2023-01-22T04:14:23.468Z,9.25
2023-01-22T04:16:53.200Z,9.29
2023-01-22T04:19:21.554Z,9.53
2023-01-22T04:21:49.879Z,9.67
2023-01-22T04:24:18.268Z,9.47
2023-01-22T04:26:46.584Z,9.71
2023-01-22T04:29:14.980Z,9.56
2023-01-22T04:31:43.282Z,9.71
2023-01-22T04:34:13.129Z,9.75
2023-01-22T04:36:41.505Z,9.72
2023-01-22T04:39:09.800Z,9.55
2023-01-22T04:41:38.104Z,9.57
2023-01-22T04:44:06.608Z,9.54
2023-01-22T04:46:34.855Z,9.52
2023-01-22T04:49:03.101Z,9.47
2023-01-22T04:51:32.915Z,9.59
2023-01-22T04:54:01.235Z,9.58
2023-01-22T04:56:29.487Z,9.63
2023-01-22T04:59:00.549Z,9.59
2023-01-22T05:01:28.816Z,9.63
2023-01-22T05:03:57.070Z,9.64
2023-01-22T05:06:25.422Z,9.68
2023-01-22T05:08:55.107Z,9.61
2023-01-22T05:11:23.342Z,9.39
2023-01-22T05:13:51.678Z,9.51
2023-01-22T05:16:19.990Z,9.63
2023-01-22T05:18:48.440Z,9.69
2023-01-22T05:21:16.872Z,9.73
2023-01-22T05:23:45.127Z,9.79
2023-01-22T05:26:14.963Z,9.82
2023-01-22T05:28:43.311Z,9.44
2023-01-22T05:31:12.027Z,9.23
2023-01-22T05:33:41.190Z,8.93
2023-01-22T05:36:12.849Z,8.84
2023-01-22T05:38:41.037Z,9.02
2023-01-22T05:41:09.390Z,8.99
2023-01-22T05:43:42.710Z,8.29
2023-01-22T05:46:11.093Z,9.11
2023-01-22T05:48:39.408Z,9.25
2023-01-22T05:51:09.599Z,9.14
2023-01-22T05:53:38.000Z,9.50
2023-01-22T05:56:07.831Z,9.42
2023-01-22T05:58:36.137Z,9.30
2023-01-22T06:01:06.376Z,9.21
2023-01-22T06:03:36.468Z,9.64
2023-01-22T06:06:07.044Z,9.42
2023-01-22T06:08:35.589Z,9.02
2023-01-22T06:11:05.395Z,9.59
2023-01-22T06:13:34.248Z,9.68
2023-01-22T06:16:02.891Z,9.56
2023-01-22T06:18:35.626Z,9.67
2023-01-22T06:21:06.061Z,9.74
2023-01-22T06:23:35.115Z,9.80
2023-01-22T06:26:04.794Z,9.98
2023-01-22T06:28:33.102Z,10.03
2023-01-22T06:31:05.816Z,9.94
2023-01-22T06:33:37.275Z,10.12
2023-01-22T06:36:06.672Z,10.25
2023-01-22T06:38:35.215Z,9.80
2023-01-22T06:41:03.595Z,10.35
2023-01-22T06:43:31.920Z,10.30
2023-01-22T06:46:00.288Z,10.32
2023-01-22T06:48:28.655Z,10.34
2023-01-22T06:51:00.708Z,10.33
2023-01-22T06:53:29.200Z,10.49
2023-01-22T06:56:00.588Z,10.57
2023-01-22T06:58:29.339Z,10.65
2023-01-22T07:01:01.801Z,10.70
2023-01-22T07:03:30.380Z,10.11
2023-01-22T07:06:01.798Z,11.17
2023-01-22T07:08:35.425Z,11.01
2023-01-22T07:11:07.886Z,11.01
2023-01-22T07:13:36.725Z,10.84
2023-01-22T07:16:06.010Z,10.89
2023-01-22T07:18:34.373Z,10.97
2023-01-22T07:21:04.925Z,11.08
2023-01-22T07:23:33.686Z,11.01
2023-01-22T07:26:07.278Z,11.08
2023-01-22T07:28:35.650Z,11.01
2023-01-22T07:31:07.008Z,10.64
2023-01-22T07:33:35.305Z,10.82
2023-01-22T07:36:07.449Z,11.33
2023-01-22T07:38:35.706Z,11.33
2023-01-22T07:41:13.941Z,11.57
2023-01-22T07:43:49.521Z,11.36
2023-01-22T07:46:17.919Z,11.47
2023-01-22T07:48:47.317Z,11.51
2023-01-22T07:51:17.694Z,11.07
2023-01-22T07:53:46.109Z,11.27
2023-01-22T07:56:14.419Z,11.24
2023-01-22T07:58:42.683Z,11.39
2023-01-22T08:01:11.288Z,11.57
2023-01-22T08:03:39.777Z,11.60
2023-01-22T08:06:12.551Z,11.76
2023-01-22T08:08:42.752Z,11.72
2023-01-22T08:11:11.217Z,12.01
2023-01-22T08:13:39.556Z,12.09
2023-01-22T08:16:09.553Z,11.85
2023-01-22T08:18:38.200Z,11.96
2023-01-22T08:21:06.885Z,11.94
2023-01-22T08:23:35.618Z,12.05
2023-01-22T08:26:05.813Z,12.40
2023-01-22T08:28:34.185Z,12.85
2023-01-22T08:31:04.222Z,13.44
2023-01-22T08:33:34.508Z,13.48
2023-01-22T08:36:02.921Z,14.28
2023-01-22T08:38:31.226Z,14.42
2023-01-22T08:40:59.595Z,13.87
2023-01-22T08:43:30.047Z,13.76
2023-01-22T08:45:58.330Z,14.45
2023-01-22T08:48:26.771Z,15.42
2023-01-22T08:50:55.145Z,15.54
2023-01-22T08:53:23.426Z,15.04
2023-01-22T08:55:52.358Z,15.18
2023-01-22T08:58:22.386Z,14.67
2023-01-22T09:00:52.294Z,14.31
2023-01-22T09:03:20.751Z,14.60
2023-01-22T09:05:49.018Z,14.56
2023-01-22T09:08:17.286Z,14.34
2023-01-22T09:10:46.133Z,14.42
2023-01-22T09:13:14.538Z,14.55
2023-01-22T09:15:42.856Z,14.29
2023-01-22T09:18:12.661Z,15.42
2023-01-22T09:20:41.375Z,16.64
2023-01-22T09:23:09.815Z,16.38
2023-01-22T09:25:38.107Z,16.35
2023-01-22T09:28:09.079Z,16.60
2023-01-22T09:30:39.575Z,15.80
2023-01-22T09:33:08.050Z,15.92
2023-01-22T09:35:37.797Z,15.86
2023-01-22T09:38:06.827Z,15.36
2023-01-22T09:40:43.566Z,15.10
2023-01-22T09:43:25.933Z,15.12
2023-01-22T09:45:56.728Z,14.96
2023-01-22T09:48:28.544Z,15.60
2023-01-22T09:50:58.304Z,15.67
2023-01-22T09:53:26.657Z,15.45
2023-01-22T09:55:57.739Z,15.63
2023-01-22T09:58:27.266Z,15.62
2023-01-22T10:01:00.364Z,15.78
2023-01-22T10:03:34.546Z,16.39
2023-01-22T10:06:11.103Z,17.96
2023-01-22T10:08:44.801Z,18.26
2023-01-22T10:11:13.311Z,18.52
2023-01-22T10:13:41.680Z,18.96
2023-01-22T10:16:11.290Z,18.25
2023-01-22T10:18:44.988Z,18.76
2023-01-22T10:21:20.946Z,19.15
2023-01-22T10:23:50.460Z,19.35
2023-01-22T10:26:25.219Z,18.88
2023-01-22T10:28:57.123Z,18.82
2023-01-22T10:31:28.685Z,17.29
2023-01-22T10:33:58.971Z,17.69
2023-01-22T10:36:29.913Z,18.23
2023-01-22T10:39:10.290Z,19.81
2023-01-22T10:41:38.648Z,20.64
2023-01-22T10:44:11.948Z,19.88
2023-01-22T10:46:40.278Z,18.98
2023-01-22T10:49:08.606Z,18.52
2023-01-22T10:51:43.029Z,17.81
2023-01-22T10:54:22.493Z,17.43
2023-01-22T10:56:52.237Z,17.28
2023-01-22T10:59:26.030Z,17.50
2023-01-22T11:01:59.425Z,17.33
2023-01-22T11:04:29.649Z,16.87
2023-01-22T11:07:05.881Z,16.79
2023-01-22T11:09:39.784Z,17.01
2023-01-22T11:12:17.027Z,16.98
2023-01-22T11:14:48.884Z,15.99
2023-01-22T11:17:22.254Z,16.32
2023-01-22T11:19:58.433Z,15.89
2023-01-22T11:22:34.935Z,16.24
2023-01-22T11:25:03.947Z,16.37
2023-01-22T11:28:01.483Z,15.16
2023-01-22T11:30:52.964Z,15.43
2023-01-22T11:33:46.911Z,15.07
2023-01-22T11:36:20.980Z,15.13
2023-01-22T11:38:54.891Z,14.99
2023-01-22T11:41:35.890Z,15.19
2023-01-22T11:44:19.756Z,15.49
2023-01-22T11:47:05.996Z,14.89
2023-01-22T11:49:57.255Z,14.66
2023-01-22T11:52:38.590Z,14.73
2023-01-22T11:55:27.600Z,14.38
2023-01-22T11:58:05.859Z,14.36
2023-01-22T12:00:44.752Z,15.25
2023-01-22T12:03:34.415Z,16.90
2023-01-22T12:06:17.139Z,16.24
2023-01-22T12:08:58.452Z,16.36
2023-01-22T12:11:47.039Z,17.40
2023-01-22T12:14:29.217Z,17.48
2023-01-22T12:17:05.337Z,17.49
2023-01-22T12:20:04.534Z,16.29
2023-01-22T12:22:38.865Z,16.03
2023-01-22T12:25:18.997Z,15.93
2023-01-22T12:27:55.160Z,15.86
2023-01-22T12:30:28.648Z,16.13
2023-01-22T12:33:01.850Z,15.79
2023-01-22T12:35:32.889Z,15.95
2023-01-22T12:38:12.284Z,16.01
2023-01-22T12:41:04.317Z,15.56
2023-01-22T12:43:39.281Z,15.17
2023-01-22T12:46:18.440Z,15.33
2023-01-22T12:48:53.490Z,15.94
2023-01-22T12:51:35.883Z,16.06
2023-01-22T12:54:10.862Z,15.98
2023-01-22T12:56:39.288Z,15.77
2023-01-22T12:59:32.664Z,15.70
2023-01-22T13:02:02.466Z,15.69
2023-01-22T13:04:32.142Z,15.14
2023-01-22T13:07:21.331Z,15.09
2023-01-22T13:09:49.897Z,15.07
2023-01-22T13:12:28.058Z,15.19
2023-01-22T13:14:59.104Z,15.57
2023-01-22T13:17:31.102Z,15.11
2023-01-22T13:20:00.341Z,15.44
2023-01-22T13:22:29.316Z,15.34
2023-01-22T13:24:59.649Z,15.11
2023-01-22T13:27:30.683Z,14.79
2023-01-22T13:30:10.755Z,15.10
2023-01-22T13:32:39.155Z,15.48
2023-01-22T13:35:08.712Z,15.28
2023-01-22T13:37:38.850Z,15.28
2023-01-22T13:40:24.163Z,15.18
2023-01-22T13:42:53.239Z,15.28
2023-01-22T13:45:26.059Z,15.20
2023-01-22T13:47:56.852Z,15.34
2023-01-22T13:50:29.443Z,15.35
2023-01-22T13:52:59.190Z,15.63
2023-01-22T13:55:28.877Z,15.66
2023-01-22T13:57:58.768Z,15.57
2023-01-22T14:00:31.532Z,15.17
2023-01-22T14:03:00.883Z,14.95
2023-01-22T14:05:35.067Z,14.79
2023-01-22T14:08:07.528Z,14.73
2023-01-22T14:10:36.235Z,14.74
2023-01-22T14:13:07.977Z,15.09
2023-01-22T14:15:38.341Z,14.06
2023-01-22T14:18:11.191Z,13.85
2023-01-22T14:20:40.681Z,13.97
2023-01-22T14:23:09.381Z,14.43
2023-01-22T14:25:38.938Z,14.50
2023-01-22T14:28:07.507Z,14.51
2023-01-22T14:30:37.295Z,14.63
2023-01-22T14:33:05.721Z,14.18
2023-01-22T14:35:34.159Z,14.27
2023-01-22T14:38:02.426Z,14.29
2023-01-22T14:40:33.126Z,14.43
2023-01-22T14:43:02.209Z,13.96
2023-01-22T14:45:30.799Z,13.54
2023-01-22T14:48:01.556Z,12.86
2023-01-22T14:50:29.748Z,12.85
2023-01-22T14:52:58.994Z,12.35
2023-01-22T14:55:31.375Z,12.95
2023-01-22T14:58:00.202Z,13.05
2023-01-22T15:00:29.526Z,13.42
2023-01-22T15:02:58.927Z,13.13
2023-01-22T15:05:35.557Z,13.25
2023-01-22T15:08:04.187Z,13.24
2023-01-22T15:10:32.501Z,13.43
2023-01-22T15:13:00.866Z,12.88
2023-01-22T15:15:29.573Z,12.89
2023-01-22T15:17:59.040Z,12.80
2023-01-22T15:20:27.514Z,12.53
2023-01-22T15:22:57.302Z,12.30
2023-01-22T15:25:27.481Z,12.35
2023-01-22T15:27:55.737Z,12.33
2023-01-22T15:30:24.198Z,12.49
2023-01-22T15:32:52.547Z,12.17
2023-01-22T15:35:20.782Z,12.54
2023-01-22T15:37:49.284Z,12.36
2023-01-22T15:40:19.594Z,12.38
2023-01-22T15:42:48.009Z,11.88
2023-01-22T15:45:16.435Z,11.96
2023-01-22T15:47:44.735Z,11.69
2023-01-22T15:50:20.189Z,12.45
2023-01-22T15:52:48.685Z,12.49
2023-01-22T15:55:18.382Z,12.45
2023-01-22T15:57:46.645Z,12.50
2023-01-22T16:00:16.386Z,12.57
2023-01-22T16:02:44.958Z,12.52
2023-01-22T16:05:13.728Z,12.50
2023-01-22T16:07:42.061Z,12.44
2023-01-22T16:10:11.432Z,12.47
2023-01-22T16:12:44.117Z,12.14
2023-01-22T16:15:12.704Z,12.44
2023-01-22T16:17:41.084Z,12.18
2023-01-22T16:20:10.392Z,12.09
2023-01-22T16:22:38.770Z,12.02
2023-01-22T16:25:07.644Z,11.91
2023-01-22T16:27:35.994Z,12.00
2023-01-22T16:30:08.151Z,11.79
2023-01-22T16:32:37.852Z,12.04
2023-01-22T16:35:07.031Z,12.09
2023-01-22T16:37:35.371Z,12.04
2023-01-22T16:40:03.942Z,11.70
2023-01-22T16:42:32.210Z,12.12
2023-01-22T16:45:00.511Z,12.00
2023-01-22T16:47:30.283Z,11.64
2023-01-22T16:49:58.581Z,11.96
2023-01-22T16:52:26.817Z,11.97
2023-01-22T16:54:55.196Z,11.88
2023-01-22T16:57:23.624Z,11.98
2023-01-22T16:59:51.911Z,11.82
2023-01-22T17:02:20.318Z,11.78
2023-01-22T17:04:50.050Z,11.80
2023-01-22T17:07:32.907Z,11.73
2023-01-22T17:10:02.247Z,11.91
2023-01-22T17:12:30.561Z,11.32
2023-01-22T17:14:59.068Z,11.52
2023-01-22T17:17:27.352Z,11.46
2023-01-22T17:19:57.042Z,11.48
2023-01-22T17:22:25.460Z,11.56
2023-01-22T17:24:53.792Z,11.52
2023-01-22T17:27:22.224Z,11.73
2023-01-22T17:29:50.709Z,11.22
2023-01-22T17:32:19.206Z,11.25
2023-01-22T17:34:47.552Z,11.62
2023-01-22T17:37:17.351Z,11.68
2023-01-22T17:39:50.682Z,11.63
2023-01-22T17:42:19.294Z,11.76
2023-01-22T17:44:47.983Z,11.78
2023-01-22T17:47:17.048Z,11.71
2023-01-22T17:49:48.057Z,11.83
2023-01-22T17:52:19.443Z,11.87
2023-01-22T17:54:48.315Z,11.49
2023-01-22T17:57:17.857Z,11.11
2023-01-22T17:59:46.549Z,11.43
2023-01-22T18:02:15.656Z,11.38
2023-01-22T18:04:50.804Z,11.40
2023-01-22T18:07:21.578Z,11.70
2023-01-22T18:09:49.895Z,11.48
2023-01-22T18:12:21.637Z,11.57
2023-01-22T18:14:53.673Z,11.63
2023-01-22T18:17:22.108Z,11.58
2023-01-22T18:19:50.828Z,11.56
2023-01-22T18:22:21.818Z,11.21
2023-01-22T18:24:50.345Z,9.98
2023-01-22T18:27:21.474Z,11.18
2023-01-22T18:29:49.791Z,11.41
2023-01-22T18:32:18.334Z,11.36
2023-01-22T18:34:48.011Z,11.16
2023-01-22T18:37:16.964Z,11.42
2023-01-22T18:39:50.091Z,11.12
2023-01-22T18:42:19.756Z,11.12
2023-01-22T18:44:49.125Z,11.43
2023-01-22T18:47:19.061Z,11.43
2023-01-22T18:49:47.428Z,11.54
2023-01-22T18:52:15.626Z,11.54
2023-01-22T18:54:43.911Z,11.51
2023-01-22T18:57:13.632Z,11.07
2023-01-22T18:59:42.185Z,11.34
2023-01-22T19:02:13.319Z,11.28
2023-01-22T19:04:41.786Z,10.86
2023-01-22T19:07:10.056Z,10.97
2023-01-22T19:09:39.065Z,10.57
2023-01-22T19:12:08.370Z,10.60
2023-01-22T19:14:38.103Z,10.39
2023-01-22T19:17:07.069Z,10.58
2023-01-22T19:19:35.335Z,10.66
2023-01-22T19:22:04.151Z,10.93
2023-01-22T19:24:33.592Z,10.78
2023-01-22T19:27:01.871Z,10.94
2023-01-22T19:29:30.186Z,10.60
2023-01-22T19:32:00.105Z,10.81
2023-01-22T19:34:30.461Z,10.74
2023-01-22T19:37:02.499Z,10.77
2023-01-22T19:39:31.683Z,10.80
2023-01-22T19:42:02.351Z,10.85
2023-01-22T19:44:31.374Z,10.97
2023-01-22T19:47:01.968Z,10.92
2023-01-22T19:49:30.907Z,11.00
2023-01-22T19:51:59.923Z,10.99
2023-01-22T19:54:28.303Z,10.74
2023-01-22T19:56:56.597Z,10.50
2023-01-22T19:59:25.552Z,10.56
2023-01-22T20:01:54.335Z,10.71
2023-01-22T20:04:26.781Z,10.84
2023-01-22T20:06:59.347Z,10.89
2023-01-22T20:09:27.726Z,10.80
2023-01-22T20:11:58.281Z,10.37
2023-01-22T20:14:30.084Z,10.46
2023-01-22T20:16:58.849Z,10.05
2023-01-22T20:19:29.902Z,10.04
2023-01-22T20:21:59.624Z,10.23
2023-01-22T20:24:28.319Z,10.47
2023-01-22T20:26:57.106Z,10.42
2023-01-22T20:29:25.470Z,10.52
2023-01-22T20:31:54.295Z,10.75
2023-01-22T20:34:22.966Z,10.90
2023-01-22T20:36:52.721Z,10.71
2023-01-22T20:39:21.048Z,10.82
2023-01-22T20:41:49.423Z,10.43
2023-01-22T20:44:18.316Z,10.60
2023-01-22T20:46:48.907Z,10.58
2023-01-22T20:49:17.296Z,10.60
2023-01-22T20:51:45.639Z,10.81
2023-01-22T20:54:15.395Z,10.72
2023-01-22T20:56:46.622Z,10.40
2023-01-22T20:59:18.559Z,10.43
2023-01-22T21:01:47.272Z,10.47
2023-01-22T21:04:16.417Z,10.26
2023-01-22T21:06:44.625Z,10.87
2023-01-22T21:09:15.217Z,10.77
2023-01-22T21:11:44.470Z,10.25
2023-01-22T21:14:16.969Z,10.16
2023-01-22T21:16:45.702Z,9.99
2023-01-22T21:19:22.094Z,10.38
2023-01-22T21:21:50.566Z,10.62
2023-01-22T21:24:20.853Z,10.85
2023-01-22T21:26:49.109Z,10.96
2023-01-22T21:29:20.215Z,10.98
2023-01-22T21:31:50.344Z,10.86
2023-01-22T21:34:20.032Z,10.79
2023-01-22T21:36:50.049Z,10.40
2023-01-22T21:39:22.338Z,10.98
2023-01-22T21:41:50.645Z,11.18
2023-01-22T21:44:37.812Z,10.51
2023-01-22T21:47:06.963Z,10.95
2023-01-22T21:49:36.287Z,11.15
2023-01-22T21:52:09.528Z,11.21
2023-01-22T21:54:41.412Z,11.22
2023-01-22T21:57:15.791Z,10.99
2023-01-22T21:59:45.703Z,10.84
2023-01-22T22:02:17.584Z,10.93
2023-01-22T22:04:46.174Z,10.95
2023-01-22T22:07:14.829Z,10.81
2023-01-22T22:09:45.024Z,10.89
2023-01-22T22:12:13.332Z,11.12
2023-01-22T22:14:41.647Z,11.11
2023-01-22T22:17:09.968Z,11.10
2023-01-22T22:19:40.880Z,11.29
2023-01-22T22:22:09.123Z,10.70
2023-01-22T22:24:37.465Z,11.13
2023-01-22T22:27:07.243Z,11.11
2023-01-22T22:29:35.584Z,11.03
2023-01-22T22:32:03.911Z,11.18
2023-01-22T22:34:32.129Z,11.20
2023-01-22T22:37:00.484Z,11.20
2023-01-22T22:39:29.013Z,11.21
2023-01-22T22:41:57.362Z,11.22
2023-01-22T22:44:27.143Z,11.12
2023-01-22T22:46:55.464Z,11.12
2023-01-22T22:49:23.836Z,10.99
2023-01-22T22:51:54.654Z,11.03
2023-01-22T22:54:23.988Z,11.12
2023-01-22T22:56:52.925Z,11.11
2023-01-22T22:59:21.595Z,11.06
2023-01-22T23:01:51.650Z,11.15
2023-01-22T23:04:19.987Z,10.98
2023-01-22T23:06:48.705Z,11.05
2023-01-22T23:09:19.673Z,10.97
2023-01-22T23:11:51.825Z,10.68
2023-01-22T23:14:20.403Z,10.18
2023-01-22T23:16:50.616Z,10.79
2023-01-22T23:19:21.350Z,10.86
2023-01-22T23:21:53.049Z,10.89
2023-01-22T23:24:21.441Z,11.03
2023-01-22T23:26:50.706Z,10.49
2023-01-22T23:29:21.195Z,10.79
2023-01-22T23:31:51.540Z,10.91
2023-01-22T23:34:22.133Z,10.42
2023-01-22T23:36:51.583Z,10.40
2023-01-22T23:39:21.905Z,10.43
2023-01-22T23:41:50.869Z,10.10
2023-01-22T23:44:19.496Z,10.46
2023-01-22T23:46:47.892Z,10.03
2023-01-22T23:49:17.706Z,10.81
2023-01-22T23:51:46.107Z,10.98
2023-01-22T23:54:14.490Z,10.99
2023-01-22T23:56:42.771Z,10.77
2023-01-22T23:59:12.039Z,10.97
